sensor_id;sensor_type;location;lat;lon;timestamp;P1;durP1;ratioP1;P2;durP2;ratioP2
38358;SDS011;42072;48.044;14.416;2023-06-10T00:00:00;15.57;;;12.40;;
38358;SDS011;42072;48.044;14.416;2023-06-10T00:02:27;17.10;;;12.90;;
38358;SDS011;42072;48.044;14.416;2023-06-10T00:04:55;15.77;;;13.55;;
38358;SDS011;42072;48.044;14.416;2023-06-10T00:07:24;20.63;;;14.35;;
38358;SDS011;42072;48.044;14.416;2023-06-10T00:09:51;16.33;;;13.00;;
38358;SDS011;42072;48.044;14.416;2023-06-10T00:12:18;21.17;;;15.52;;
38358;SDS011;42072;48.044;14.416;2023-06-10T00:14:46;26.95;;;17.67;;
38358;SDS011;42072;48.044;14.416;2023-06-10T00:17:16;19.83;;;15.90;;
38358;SDS011;42072;48.044;14.416;2023-06-10T00:19:44;19.85;;;14.77;;
38358;SDS011;42072;48.044;14.416;2023-06-10T00:22:13;17.15;;;14.27;;
38358;SDS011;42072;48.044;14.416;2023-06-10T00:24:41;20.38;;;15.20;;
38358;SDS011;42072;48.044;14.416;2023-06-10T00:27:09;18.00;;;13.80;;
38358;SDS011;42072;48.044;14.416;2023-06-10T00:29:36;16.15;;;12.95;;
38358;SDS011;42072;48.044;14.416;2023-06-10T00:32:05;16.10;;;13.52;;
38358;SDS011;42072;48.044;14.416;2023-06-10T00:34:33;16.80;;;13.82;;
38358;SDS011;42072;48.044;14.416;2023-06-10T00:37:00;20.13;;;14.30;;
38358;SDS011;42072;48.044;14.416;2023-06-10T00:39:27;18.42;;;14.10;;
38358;SDS011;42072;48.044;14.416;2023-06-10T00:41:55;18.60;;;14.60;;
38358;SDS011;42072;48.044;14.416;2023-06-10T00:44:22;17.65;;;14.52;;
38358;SDS011;42072;48.044;14.416;2023-06-10T00:46:49;18.00;;;14.10;;
38358;SDS011;42072;48.044;14.416;2023-06-10T00:49:19;16.92;;;14.35;;
38358;SDS011;42072;48.044;14.416;2023-06-10T00:51:46;17.10;;;14.23;;
38358;SDS011;42072;48.044;14.416;2023-06-10T00:54:13;16.92;;;14.27;;
38358;SDS011;42072;48.044;14.416;2023-06-10T00:56:41;17.90;;;14.13;;
38358;SDS011;42072;48.044;14.416;2023-06-10T00:59:09;18.45;;;14.80;;
38358;SDS011;42072;48.044;14.416;2023-06-10T01:01:36;19.75;;;14.32;;
38358;SDS011;42072;48.044;14.416;2023-06-10T01:04:05;15.40;;;12.77;;
38358;SDS011;42072;48.044;14.416;2023-06-10T01:06:46;17.50;;;13.23;;
38358;SDS011;42072;48.044;14.416;2023-06-10T01:17:11;16.02;;;13.40;;
38358;SDS011;42072;48.044;14.416;2023-06-10T01:19:43;16.75;;;12.95;;
38358;SDS011;42072;48.044;14.416;2023-06-10T01:22:11;16.20;;;13.70;;
38358;SDS011;42072;48.044;14.416;2023-06-10T01:24:42;19.45;;;14.60;;
38358;SDS011;42072;48.044;14.416;2023-06-10T01:27:12;18.30;;;15.23;;
38358;SDS011;42072;48.044;14.416;2023-06-10T01:29:46;17.55;;;14.88;;
38358;SDS011;42072;48.044;14.416;2023-06-10T01:32:23;17.23;;;14.10;;
38358;SDS011;42072;48.044;14.416;2023-06-10T01:34:58;19.25;;;15.35;;
38358;SDS011;42072;48.044;14.416;2023-06-10T01:37:28;17.05;;;14.55;;
38358;SDS011;42072;48.044;14.416;2023-06-10T01:39:57;18.88;;;14.50;;
38358;SDS011;42072;48.044;14.416;2023-06-10T01:42:25;18.40;;;14.25;;
38358;SDS011;42072;48.044;14.416;2023-06-10T01:44:53;14.60;;;13.07;;
38358;SDS011;42072;48.044;14.416;2023-06-10T01:47:21;17.10;;;13.60;;
38358;SDS011;42072;48.044;14.416;2023-06-10T01:49:48;17.42;;;13.82;;
38358;SDS011;42072;48.044;14.416;2023-06-10T01:52:16;16.27;;;13.98;;
38358;SDS011;42072;48.044;14.416;2023-06-10T01:54:43;16.20;;;14.23;;
38358;SDS011;42072;48.044;14.416;2023-06-10T01:57:11;18.20;;;13.40;;
38358;SDS011;42072;48.044;14.416;2023-06-10T01:59:38;15.63;;;13.75;;
38358;SDS011;42072;48.044;14.416;2023-06-10T02:02:06;18.55;;;14.02;;
38358;SDS011;42072;48.044;14.416;2023-06-10T02:04:33;17.23;;;14.02;;
38358;SDS011;42072;48.044;14.416;2023-06-10T02:07:01;16.80;;;14.43;;
38358;SDS011;42072;48.044;14.416;2023-06-10T02:09:30;18.67;;;14.60;;
38358;SDS011;42072;48.044;14.416;2023-06-10T02:11:57;19.73;;;14.40;;
38358;SDS011;42072;48.044;14.416;2023-06-10T02:14:25;17.42;;;14.68;;
38358;SDS011;42072;48.044;14.416;2023-06-10T02:16:52;18.60;;;14.05;;
38358;SDS011;42072;48.044;14.416;2023-06-10T02:19:23;16.60;;;14.15;;
38358;SDS011;42072;48.044;14.416;2023-06-10T02:21:51;19.50;;;13.93;;
38358;SDS011;42072;48.044;14.416;2023-06-10T02:24:19;16.25;;;13.63;;
38358;SDS011;42072;48.044;14.416;2023-06-10T02:26:46;16.75;;;14.35;;
38358;SDS011;42072;48.044;14.416;2023-06-10T02:29:14;17.10;;;12.18;;
38358;SDS011;42072;48.044;14.416;2023-06-10T02:31:41;15.30;;;11.75;;
38358;SDS011;42072;48.044;14.416;2023-06-10T02:34:09;13.50;;;10.45;;
38358;SDS011;42072;48.044;14.416;2023-06-10T02:36:36;11.82;;;10.63;;
38358;SDS011;42072;48.044;14.416;2023-06-10T02:39:03;15.48;;;11.85;;
38358;SDS011;42072;48.044;14.416;2023-06-10T02:41:31;14.60;;;12.13;;
38358;SDS011;42072;48.044;14.416;2023-06-10T02:43:58;18.15;;;13.48;;
38358;SDS011;42072;48.044;14.416;2023-06-10T02:46:26;17.35;;;13.45;;
38358;SDS011;42072;48.044;14.416;2023-06-10T02:48:55;15.85;;;12.73;;
38358;SDS011;42072;48.044;14.416;2023-06-10T02:51:22;17.67;;;13.18;;
38358;SDS011;42072;48.044;14.416;2023-06-10T02:53:49;15.48;;;12.80;;
38358;SDS011;42072;48.044;14.416;2023-06-10T02:56:17;18.95;;;13.38;;
38358;SDS011;42072;48.044;14.416;2023-06-10T02:58:45;18.17;;;14.63;;
38358;SDS011;42072;48.044;14.416;2023-06-10T03:01:13;17.98;;;14.63;;
38358;SDS011;42072;48.044;14.416;2023-06-10T03:03:41;21.23;;;14.65;;
38358;SDS011;42072;48.044;14.416;2023-06-10T03:06:10;18.05;;;14.00;;
38358;SDS011;42072;48.044;14.416;2023-06-10T03:08:37;16.23;;;14.10;;
38358;SDS011;42072;48.044;14.416;2023-06-10T03:11:05;18.70;;;14.50;;
38358;SDS011;42072;48.044;14.416;2023-06-10T03:13:32;18.52;;;14.73;;
38358;SDS011;42072;48.044;14.416;2023-06-10T03:15:59;20.48;;;14.82;;
38358;SDS011;42072;48.044;14.416;2023-06-10T03:18:27;18.70;;;14.63;;
38358;SDS011;42072;48.044;14.416;2023-06-10T03:20:55;20.83;;;15.65;;
38358;SDS011;42072;48.044;14.416;2023-06-10T03:23:23;20.20;;;15.15;;
38358;SDS011;42072;48.044;14.416;2023-06-10T03:25:50;20.38;;;15.65;;
38358;SDS011;42072;48.044;14.416;2023-06-10T03:28:17;18.85;;;14.73;;
38358;SDS011;42072;48.044;14.416;2023-06-10T03:30:45;21.63;;;14.60;;
38358;SDS011;42072;48.044;14.416;2023-06-10T03:33:12;18.23;;;15.05;;
38358;SDS011;42072;48.044;14.416;2023-06-10T03:35:40;18.73;;;14.27;;
38358;SDS011;42072;48.044;14.416;2023-06-10T03:38:08;18.92;;;14.32;;
38358;SDS011;42072;48.044;14.416;2023-06-10T03:40:35;17.40;;;13.77;;
38358;SDS011;42072;48.044;14.416;2023-06-10T03:43:02;20.08;;;12.90;;
38358;SDS011;42072;48.044;14.416;2023-06-10T03:45:30;15.25;;;12.20;;
38358;SDS011;42072;48.044;14.416;2023-06-10T03:47:58;16.20;;;13.10;;
38358;SDS011;42072;48.044;14.416;2023-06-10T03:50:27;19.17;;;12.57;;
38358;SDS011;42072;48.044;14.416;2023-06-10T03:52:54;13.73;;;11.23;;
38358;SDS011;42072;48.044;14.416;2023-06-10T03:55:21;13.45;;;11.23;;
38358;SDS011;42072;48.044;14.416;2023-06-10T03:57:50;12.35;;;11.05;;
38358;SDS011;42072;48.044;14.416;2023-06-10T04:00:18;14.55;;;11.05;;
38358;SDS011;42072;48.044;14.416;2023-06-10T04:02:47;11.05;;;9.77;;
38358;SDS011;42072;48.044;14.416;2023-06-10T04:05:16;12.18;;;10.80;;
38358;SDS011;42072;48.044;14.416;2023-06-10T04:07:44;11.80;;;9.68;;
38358;SDS011;42072;48.044;14.416;2023-06-10T04:10:11;13.05;;;10.52;;
38358;SDS011;42072;48.044;14.416;2023-06-10T04:12:38;11.50;;;9.38;;
38358;SDS011;42072;48.044;14.416;2023-06-10T04:15:06;12.43;;;9.73;;
38358;SDS011;42072;48.044;14.416;2023-06-10T04:17:34;10.77;;;9.27;;
38358;SDS011;42072;48.044;14.416;2023-06-10T04:20:02;12.65;;;9.60;;
38358;SDS011;42072;48.044;14.416;2023-06-10T04:22:32;12.07;;;10.10;;
38358;SDS011;42072;48.044;14.416;2023-06-10T04:25:00;12.95;;;10.15;;
38358;SDS011;42072;48.044;14.416;2023-06-10T04:27:27;13.70;;;10.43;;
38358;SDS011;42072;48.044;14.416;2023-06-10T04:29:54;10.85;;;9.48;;
38358;SDS011;42072;48.044;14.416;2023-06-10T04:32:22;11.43;;;9.65;;
38358;SDS011;42072;48.044;14.416;2023-06-10T04:34:49;12.18;;;9.60;;
38358;SDS011;42072;48.044;14.416;2023-06-10T04:37:17;11.75;;;9.63;;
38358;SDS011;42072;48.044;14.416;2023-06-10T04:39:44;13.13;;;9.80;;
38358;SDS011;42072;48.044;14.416;2023-06-10T04:42:12;12.18;;;9.40;;
38358;SDS011;42072;48.044;14.416;2023-06-10T04:44:39;10.38;;;9.30;;
38358;SDS011;42072;48.044;14.416;2023-06-10T04:47:07;12.27;;;9.85;;
38358;SDS011;42072;48.044;14.416;2023-06-10T04:49:34;12.48;;;9.73;;
38358;SDS011;42072;48.044;14.416;2023-06-10T04:52:02;11.40;;;9.32;;
38358;SDS011;42072;48.044;14.416;2023-06-10T04:54:31;12.45;;;9.15;;
38358;SDS011;42072;48.044;14.416;2023-06-10T04:56:59;11.77;;;8.63;;
38358;SDS011;42072;48.044;14.416;2023-06-10T04:59:27;11.35;;;9.57;;
38358;SDS011;42072;48.044;14.416;2023-06-10T05:01:54;10.60;;;9.45;;
38358;SDS011;42072;48.044;14.416;2023-06-10T05:04:21;11.45;;;8.95;;
38358;SDS011;42072;48.044;14.416;2023-06-10T05:06:49;11.73;;;8.82;;
38358;SDS011;42072;48.044;14.416;2023-06-10T05:09:16;11.38;;;9.70;;
38358;SDS011;42072;48.044;14.416;2023-06-10T05:11:43;12.05;;;9.63;;
38358;SDS011;42072;48.044;14.416;2023-06-10T05:14:11;11.90;;;9.00;;
38358;SDS011;42072;48.044;14.416;2023-06-10T05:16:39;12.10;;;10.30;;
38358;SDS011;42072;48.044;14.416;2023-06-10T05:19:06;11.35;;;8.75;;
38358;SDS011;42072;48.044;14.416;2023-06-10T05:21:34;11.52;;;9.20;;
38358;SDS011;42072;48.044;14.416;2023-06-10T05:24:01;12.68;;;9.95;;
38358;SDS011;42072;48.044;14.416;2023-06-10T05:26:29;10.45;;;9.35;;
38358;SDS011;42072;48.044;14.416;2023-06-10T05:28:58;10.43;;;9.38;;
38358;SDS011;42072;48.044;14.416;2023-06-10T05:31:25;11.70;;;9.65;;
38358;SDS011;42072;48.044;14.416;2023-06-10T05:33:52;11.13;;;9.77;;
38358;SDS011;42072;48.044;14.416;2023-06-10T05:36:20;12.18;;;9.70;;
38358;SDS011;42072;48.044;14.416;2023-06-10T05:38:47;11.05;;;9.88;;
38358;SDS011;42072;48.044;14.416;2023-06-10T05:41:14;10.85;;;9.45;;
38358;SDS011;42072;48.044;14.416;2023-06-10T05:43:42;11.63;;;8.98;;
38358;SDS011;42072;48.044;14.416;2023-06-10T05:46:09;12.63;;;9.43;;
38358;SDS011;42072;48.044;14.416;2023-06-10T05:48:37;10.20;;;8.73;;
38358;SDS011;42072;48.044;14.416;2023-06-10T05:51:04;9.15;;;8.25;;
38358;SDS011;42072;48.044;14.416;2023-06-10T05:53:32;9.25;;;8.27;;
38358;SDS011;42072;48.044;14.416;2023-06-10T05:55:59;11.70;;;8.82;;
38358;SDS011;42072;48.044;14.416;2023-06-10T05:58:26;10.27;;;8.35;;
38358;SDS011;42072;48.044;14.416;2023-06-10T06:00:54;9.70;;;8.70;;
38358;SDS011;42072;48.044;14.416;2023-06-10T06:03:21;11.23;;;8.65;;
38358;SDS011;42072;48.044;14.416;2023-06-10T06:05:48;9.38;;;8.45;;
38358;SDS011;42072;48.044;14.416;2023-06-10T06:08:15;10.70;;;8.52;;
38358;SDS011;42072;48.044;14.416;2023-06-10T06:10:45;10.73;;;8.43;;
38358;SDS011;42072;48.044;14.416;2023-06-10T06:13:14;9.02;;;8.13;;
38358;SDS011;42072;48.044;14.416;2023-06-10T06:15:41;10.32;;;8.00;;
38358;SDS011;42072;48.044;14.416;2023-06-10T06:18:09;8.50;;;7.70;;
38358;SDS011;42072;48.044;14.416;2023-06-10T06:20:36;9.85;;;8.30;;
38358;SDS011;42072;48.044;14.416;2023-06-10T06:23:03;10.20;;;7.60;;
38358;SDS011;42072;48.044;14.416;2023-06-10T06:25:30;7.95;;;7.15;;
38358;SDS011;42072;48.044;14.416;2023-06-10T06:27:58;8.70;;;7.10;;
38358;SDS011;42072;48.044;14.416;2023-06-10T06:30:25;9.73;;;7.55;;
38358;SDS011;42072;48.044;14.416;2023-06-10T06:32:52;9.57;;;7.65;;
38358;SDS011;42072;48.044;14.416;2023-06-10T06:35:19;9.23;;;6.57;;
38358;SDS011;42072;48.044;14.416;2023-06-10T06:37:47;8.50;;;6.88;;
38358;SDS011;42072;48.044;14.416;2023-06-10T06:40:14;8.23;;;6.90;;
38358;SDS011;42072;48.044;14.416;2023-06-10T06:42:41;9.13;;;6.70;;
38358;SDS011;42072;48.044;14.416;2023-06-10T06:45:08;7.57;;;6.40;;
38358;SDS011;42072;48.044;14.416;2023-06-10T06:47:37;8.50;;;7.10;;
38358;SDS011;42072;48.044;14.416;2023-06-10T06:50:04;8.55;;;6.45;;
38358;SDS011;42072;48.044;14.416;2023-06-10T06:52:32;10.15;;;6.60;;
38358;SDS011;42072;48.044;14.416;2023-06-10T06:54:59;9.13;;;7.65;;
38358;SDS011;42072;48.044;14.416;2023-06-10T06:57:26;9.35;;;7.90;;
38358;SDS011;42072;48.044;14.416;2023-06-10T06:59:53;9.60;;;8.57;;
38358;SDS011;42072;48.044;14.416;2023-06-10T07:02:21;11.32;;;8.43;;
38358;SDS011;42072;48.044;14.416;2023-06-10T07:04:48;8.65;;;7.70;;
38358;SDS011;42072;48.044;14.416;2023-06-10T07:07:16;9.88;;;7.90;;
38358;SDS011;42072;48.044;14.416;2023-06-10T07:09:43;10.20;;;7.70;;
38358;SDS011;42072;48.044;14.416;2023-06-10T07:12:11;8.70;;;7.80;;
38358;SDS011;42072;48.044;14.416;2023-06-10T07:14:38;9.70;;;8.70;;
38358;SDS011;42072;48.044;14.416;2023-06-10T07:17:05;9.32;;;7.90;;
38358;SDS011;42072;48.044;14.416;2023-06-10T07:19:33;10.32;;;8.60;;
38358;SDS011;42072;48.044;14.416;2023-06-10T07:22:00;9.00;;;7.90;;
38358;SDS011;42072;48.044;14.416;2023-06-10T07:24:27;9.07;;;7.95;;
38358;SDS011;42072;48.044;14.416;2023-06-10T07:26:54;8.85;;;7.97;;
38358;SDS011;42072;48.044;14.416;2023-06-10T07:29:21;8.80;;;7.78;;
38358;SDS011;42072;48.044;14.416;2023-06-10T07:31:49;10.55;;;8.25;;
38358;SDS011;42072;48.044;14.416;2023-06-10T07:34:16;10.57;;;8.23;;
38358;SDS011;42072;48.044;14.416;2023-06-10T07:36:43;8.40;;;7.57;;
38358;SDS011;42072;48.044;14.416;2023-06-10T07:39:11;9.07;;;7.43;;
38358;SDS011;42072;48.044;14.416;2023-06-10T07:41:38;11.13;;;7.80;;
38358;SDS011;42072;48.044;14.416;2023-06-10T07:44:05;10.02;;;8.38;;
38358;SDS011;42072;48.044;14.416;2023-06-10T07:46:32;11.77;;;8.07;;
38358;SDS011;42072;48.044;14.416;2023-06-10T07:48:59;8.73;;;7.68;;
38358;SDS011;42072;48.044;14.416;2023-06-10T07:51:27;9.45;;;8.40;;
38358;SDS011;42072;48.044;14.416;2023-06-10T07:53:54;9.25;;;7.97;;
38358;SDS011;42072;48.044;14.416;2023-06-10T07:56:21;9.18;;;8.25;;
38358;SDS011;42072;48.044;14.416;2023-06-10T07:58:49;10.13;;;8.43;;
38358;SDS011;42072;48.044;14.416;2023-06-10T08:01:16;8.60;;;7.70;;
38358;SDS011;42072;48.044;14.416;2023-06-10T08:03:43;9.27;;;7.70;;
38358;SDS011;42072;48.044;14.416;2023-06-10T08:06:10;9.13;;;8.23;;
38358;SDS011;42072;48.044;14.416;2023-06-10T08:08:38;10.93;;;8.40;;
38358;SDS011;42072;48.044;14.416;2023-06-10T08:11:12;9.05;;;8.15;;
38358;SDS011;42072;48.044;14.416;2023-06-10T08:13:40;8.95;;;8.05;;
38358;SDS011;42072;48.044;14.416;2023-06-10T08:16:07;8.35;;;7.00;;
38358;SDS011;42072;48.044;14.416;2023-06-10T08:18:35;10.52;;;8.82;;
38358;SDS011;42072;48.044;14.416;2023-06-10T08:21:02;10.13;;;8.25;;
38358;SDS011;42072;48.044;14.416;2023-06-10T08:23:29;9.02;;;7.68;;
38358;SDS011;42072;48.044;14.416;2023-06-10T08:25:56;8.63;;;7.72;;
38358;SDS011;42072;48.044;14.416;2023-06-10T08:28:24;8.75;;;7.85;;
38358;SDS011;42072;48.044;14.416;2023-06-10T08:30:52;10.50;;;8.45;;
38358;SDS011;42072;48.044;14.416;2023-06-10T08:33:22;9.05;;;8.15;;
38358;SDS011;42072;48.044;14.416;2023-06-10T08:35:50;9.18;;;8.27;;
38358;SDS011;42072;48.044;14.416;2023-06-10T08:38:17;8.68;;;7.88;;
38358;SDS011;42072;48.044;14.416;2023-06-10T08:40:44;9.20;;;7.88;;
38358;SDS011;42072;48.044;14.416;2023-06-10T08:43:17;9.55;;;7.68;;
38358;SDS011;42072;48.044;14.416;2023-06-10T08:45:50;8.65;;;7.68;;
38358;SDS011;42072;48.044;14.416;2023-06-10T08:48:21;9.13;;;8.23;;
38358;SDS011;42072;48.044;14.416;2023-06-10T08:50:49;10.70;;;7.93;;
38358;SDS011;42072;48.044;14.416;2023-06-10T08:53:18;9.18;;;8.25;;
38358;SDS011;42072;48.044;14.416;2023-06-10T08:55:49;10.23;;;8.02;;
38358;SDS011;42072;48.044;14.416;2023-06-10T08:58:21;9.40;;;8.32;;
38358;SDS011;42072;48.044;14.416;2023-06-10T09:00:48;9.27;;;8.38;;
38358;SDS011;42072;48.044;14.416;2023-06-10T09:03:17;8.73;;;7.13;;
38358;SDS011;42072;48.044;14.416;2023-06-10T09:05:45;9.18;;;8.30;;
38358;SDS011;42072;48.044;14.416;2023-06-10T09:08:12;9.52;;;8.52;;
38358;SDS011;42072;48.044;14.416;2023-06-10T09:10:42;9.73;;;8.02;;
38358;SDS011;42072;48.044;14.416;2023-06-10T09:13:09;8.57;;;7.70;;
38358;SDS011;42072;48.044;14.416;2023-06-10T09:15:36;8.63;;;7.80;;
38358;SDS011;42072;48.044;14.416;2023-06-10T09:18:04;9.57;;;8.60;;
38358;SDS011;42072;48.044;14.416;2023-06-10T09:20:31;8.77;;;7.88;;
38358;SDS011;42072;48.044;14.416;2023-06-10T09:22:59;9.32;;;8.40;;
38358;SDS011;42072;48.044;14.416;2023-06-10T09:25:36;8.18;;;6.78;;
38358;SDS011;42072;48.044;14.416;2023-06-10T09:28:04;11.48;;;7.95;;
38358;SDS011;42072;48.044;14.416;2023-06-10T09:30:39;9.27;;;8.35;;
38358;SDS011;42072;48.044;14.416;2023-06-10T09:33:11;9.15;;;7.93;;
38358;SDS011;42072;48.044;14.416;2023-06-10T09:35:48;8.75;;;7.90;;
38358;SDS011;42072;48.044;14.416;2023-06-10T09:38:20;8.23;;;6.25;;
38358;SDS011;42072;48.044;14.416;2023-06-10T09:40:49;8.43;;;7.55;;
38358;SDS011;42072;48.044;14.416;2023-06-10T09:43:17;8.15;;;7.35;;
38358;SDS011;42072;48.044;14.416;2023-06-10T09:45:47;8.70;;;7.80;;
38358;SDS011;42072;48.044;14.416;2023-06-10T09:48:15;8.45;;;7.55;;
38358;SDS011;42072;48.044;14.416;2023-06-10T09:50:43;9.43;;;7.95;;
38358;SDS011;42072;48.044;14.416;2023-06-10T09:53:11;9.75;;;7.35;;
38358;SDS011;42072;48.044;14.416;2023-06-10T09:55:39;7.95;;;7.15;;
38358;SDS011;42072;48.044;14.416;2023-06-10T09:58:08;7.55;;;6.72;;
38358;SDS011;42072;48.044;14.416;2023-06-10T10:00:36;7.38;;;6.68;;
38358;SDS011;42072;48.044;14.416;2023-06-10T10:03:03;9.73;;;6.65;;
38358;SDS011;42072;48.044;14.416;2023-06-10T10:05:31;7.20;;;6.50;;
38358;SDS011;42072;48.044;14.416;2023-06-10T10:07:58;6.97;;;6.28;;
38358;SDS011;42072;48.044;14.416;2023-06-10T10:10:25;6.35;;;5.75;;
38358;SDS011;42072;48.044;14.416;2023-06-10T10:12:56;6.45;;;5.82;;
38358;SDS011;42072;48.044;14.416;2023-06-10T10:15:25;6.13;;;5.60;;
38358;SDS011;42072;48.044;14.416;2023-06-10T10:18:09;6.20;;;5.60;;
38358;SDS011;42072;48.044;14.416;2023-06-10T10:20:41;5.80;;;5.20;;
38358;SDS011;42072;48.044;14.416;2023-06-10T10:23:13;6.63;;;5.32;;
38358;SDS011;42072;48.044;14.416;2023-06-10T10:25:42;7.00;;;6.40;;
38358;SDS011;42072;48.044;14.416;2023-06-10T10:28:12;8.23;;;6.57;;
38358;SDS011;42072;48.044;14.416;2023-06-10T10:33:12;10.45;;;6.15;;
38358;SDS011;42072;48.044;14.416;2023-06-10T10:35:45;7.07;;;5.80;;
38358;SDS011;42072;48.044;14.416;2023-06-10T10:38:13;7.80;;;7.10;;
38358;SDS011;42072;48.044;14.416;2023-06-10T10:40:41;8.45;;;7.28;;
38358;SDS011;42072;48.044;14.416;2023-06-10T10:43:10;6.38;;;5.78;;
38358;SDS011;42072;48.044;14.416;2023-06-10T10:45:38;6.10;;;5.50;;
38358;SDS011;42072;48.044;14.416;2023-06-10T10:48:07;5.95;;;5.43;;
38358;SDS011;42072;48.044;14.416;2023-06-10T10:50:38;6.53;;;5.53;;
38358;SDS011;42072;48.044;14.416;2023-06-10T10:53:07;6.55;;;5.53;;
38358;SDS011;42072;48.044;14.416;2023-06-10T10:55:34;6.68;;;5.97;;
38358;SDS011;42072;48.044;14.416;2023-06-10T10:58:06;6.32;;;5.72;;
38358;SDS011;42072;48.044;14.416;2023-06-10T11:00:35;5.35;;;4.85;;
38358;SDS011;42072;48.044;14.416;2023-06-10T11:03:05;5.63;;;5.13;;
38358;SDS011;42072;48.044;14.416;2023-06-10T11:05:41;5.63;;;5.13;;
38358;SDS011;42072;48.044;14.416;2023-06-10T11:10:55;6.20;;;5.60;;
38358;SDS011;42072;48.044;14.416;2023-06-10T11:13:23;6.13;;;5.53;;
38358;SDS011;42072;48.044;14.416;2023-06-10T11:15:56;6.70;;;5.53;;
38358;SDS011;42072;48.044;14.416;2023-06-10T11:18:40;6.82;;;5.60;;
38358;SDS011;42072;48.044;14.416;2023-06-10T11:21:08;6.95;;;5.65;;
38358;SDS011;42072;48.044;14.416;2023-06-10T11:23:38;5.72;;;5.00;;
38358;SDS011;42072;48.044;14.416;2023-06-10T11:34:02;6.10;;;5.60;;
38358;SDS011;42072;48.044;14.416;2023-06-10T11:36:31;6.15;;;5.55;;
38358;SDS011;42072;48.044;14.416;2023-06-10T11:39:12;6.00;;;5.40;;
38358;SDS011;42072;48.044;14.416;2023-06-10T11:41:39;5.70;;;5.20;;
38358;SDS011;42072;48.044;14.416;2023-06-10T11:44:08;5.75;;;5.20;;
38358;SDS011;42072;48.044;14.416;2023-06-10T11:46:37;5.32;;;4.82;;
38358;SDS011;42072;48.044;14.416;2023-06-10T11:49:06;5.80;;;5.30;;
38358;SDS011;42072;48.044;14.416;2023-06-10T11:51:34;5.53;;;4.97;;
38358;SDS011;42072;48.044;14.416;2023-06-10T11:54:03;5.10;;;4.60;;
38358;SDS011;42072;48.044;14.416;2023-06-10T11:56:31;6.43;;;5.82;;
38358;SDS011;42072;48.044;14.416;2023-06-10T11:59:00;5.50;;;5.00;;
38358;SDS011;42072;48.044;14.416;2023-06-10T12:01:37;5.65;;;5.10;;
38358;SDS011;42072;48.044;14.416;2023-06-10T12:04:13;5.72;;;5.22;;
38358;SDS011;42072;48.044;14.416;2023-06-10T12:11:54;5.73;;;5.20;;
38358;SDS011;42072;48.044;14.416;2023-06-10T12:20:07;5.95;;;5.40;;
38358;SDS011;42072;48.044;14.416;2023-06-10T12:22:37;7.55;;;5.80;;
38358;SDS011;42072;48.044;14.416;2023-06-10T12:25:09;5.82;;;5.22;;
38358;SDS011;42072;48.044;14.416;2023-06-10T12:27:39;6.53;;;5.93;;
38358;SDS011;42072;48.044;14.416;2023-06-10T12:30:18;6.25;;;5.47;;
38358;SDS011;42072;48.044;14.416;2023-06-10T12:32:47;5.82;;;4.90;;
38358;SDS011;42072;48.044;14.416;2023-06-10T12:35:18;5.57;;;5.05;;
38358;SDS011;42072;48.044;14.416;2023-06-10T12:40:30;4.60;;;4.20;;
38358;SDS011;42072;48.044;14.416;2023-06-10T12:42:59;6.00;;;4.53;;
38358;SDS011;42072;48.044;14.416;2023-06-10T12:45:28;5.15;;;4.40;;
38358;SDS011;42072;48.044;14.416;2023-06-10T12:48:09;4.78;;;4.32;;
38358;SDS011;42072;48.044;14.416;2023-06-10T12:50:40;4.57;;;4.10;;
38358;SDS011;42072;48.044;14.416;2023-06-10T12:53:09;5.75;;;4.60;;
38358;SDS011;42072;48.044;14.416;2023-06-10T12:55:38;5.40;;;4.90;;
38358;SDS011;42072;48.044;14.416;2023-06-10T12:58:06;4.22;;;3.92;;
38358;SDS011;42072;48.044;14.416;2023-06-10T13:00:33;5.43;;;4.93;;
38358;SDS011;42072;48.044;14.416;2023-06-10T13:03:02;5.50;;;4.88;;
38358;SDS011;42072;48.044;14.416;2023-06-10T13:05:29;7.57;;;5.50;;
38358;SDS011;42072;48.044;14.416;2023-06-10T13:07:57;6.20;;;4.82;;
38358;SDS011;42072;48.044;14.416;2023-06-10T13:10:25;5.50;;;3.92;;
38358;SDS011;42072;48.044;14.416;2023-06-10T13:12:54;4.18;;;3.25;;
38358;SDS011;42072;48.044;14.416;2023-06-10T13:15:21;7.93;;;4.35;;
38358;SDS011;42072;48.044;14.416;2023-06-10T13:17:49;8.35;;;5.07;;
38358;SDS011;42072;48.044;14.416;2023-06-10T13:20:17;7.47;;;5.40;;
38358;SDS011;42072;48.044;14.416;2023-06-10T13:22:45;9.60;;;5.50;;
38358;SDS011;42072;48.044;14.416;2023-06-10T13:25:14;10.52;;;6.18;;
38358;SDS011;42072;48.044;14.416;2023-06-10T13:27:42;8.48;;;6.63;;
38358;SDS011;42072;48.044;14.416;2023-06-10T13:30:09;11.65;;;6.85;;
38358;SDS011;42072;48.044;14.416;2023-06-10T13:32:37;8.00;;;6.82;;
38358;SDS011;42072;48.044;14.416;2023-06-10T13:35:05;7.07;;;6.38;;
38358;SDS011;42072;48.044;14.416;2023-06-10T13:37:35;7.88;;;6.30;;
38358;SDS011;42072;48.044;14.416;2023-06-10T13:40:02;7.80;;;6.35;;
38358;SDS011;42072;48.044;14.416;2023-06-10T13:42:30;12.73;;;7.20;;
38358;SDS011;42072;48.044;14.416;2023-06-10T13:44:57;8.65;;;6.35;;
38358;SDS011;42072;48.044;14.416;2023-06-10T13:47:25;10.93;;;6.75;;
38358;SDS011;42072;48.044;14.416;2023-06-10T13:49:52;9.32;;;7.70;;
38358;SDS011;42072;48.044;14.416;2023-06-10T13:52:19;8.88;;;7.28;;
38358;SDS011;42072;48.044;14.416;2023-06-10T13:54:46;8.30;;;7.10;;
38358;SDS011;42072;48.044;14.416;2023-06-10T13:57:13;9.55;;;7.88;;
38358;SDS011;42072;48.044;14.416;2023-06-10T13:59:41;9.32;;;7.90;;
38358;SDS011;42072;48.044;14.416;2023-06-10T14:02:08;13.63;;;8.43;;
38358;SDS011;42072;48.044;14.416;2023-06-10T14:04:35;12.27;;;8.50;;
38358;SDS011;42072;48.044;14.416;2023-06-10T14:07:03;10.70;;;8.52;;
38358;SDS011;42072;48.044;14.416;2023-06-10T14:09:30;9.27;;;8.18;;
38358;SDS011;42072;48.044;14.416;2023-06-10T14:11:57;10.20;;;8.32;;
38358;SDS011;42072;48.044;14.416;2023-06-10T14:14:25;10.43;;;8.25;;
38358;SDS011;42072;48.044;14.416;2023-06-10T14:16:53;11.77;;;9.40;;
38358;SDS011;42072;48.044;14.416;2023-06-10T14:19:20;13.38;;;9.35;;
38358;SDS011;42072;48.044;14.416;2023-06-10T14:21:47;11.27;;;9.48;;
38358;SDS011;42072;48.044;14.416;2023-06-10T14:24:16;15.52;;;9.73;;
38358;SDS011;42072;48.044;14.416;2023-06-10T14:26:43;11.98;;;9.43;;
38358;SDS011;42072;48.044;14.416;2023-06-10T14:29:10;11.18;;;9.55;;
38358;SDS011;42072;48.044;14.416;2023-06-10T14:31:40;10.85;;;9.30;;
38358;SDS011;42072;48.044;14.416;2023-06-10T14:34:08;10.90;;;9.10;;
38358;SDS011;42072;48.044;14.416;2023-06-10T14:36:35;12.07;;;9.63;;
38358;SDS011;42072;48.044;14.416;2023-06-10T14:39:03;13.10;;;10.55;;
38358;SDS011;42072;48.044;14.416;2023-06-10T14:41:31;14.80;;;10.75;;
38358;SDS011;42072;48.044;14.416;2023-06-10T14:43:58;11.82;;;9.75;;
38358;SDS011;42072;48.044;14.416;2023-06-10T14:46:25;11.75;;;10.20;;
38358;SDS011;42072;48.044;14.416;2023-06-10T14:48:53;13.55;;;10.18;;
38358;SDS011;42072;48.044;14.416;2023-06-10T14:51:20;13.35;;;11.07;;
38358;SDS011;42072;48.044;14.416;2023-06-10T14:53:47;15.38;;;10.90;;
38358;SDS011;42072;48.044;14.416;2023-06-10T14:56:14;14.82;;;11.25;;
38358;SDS011;42072;48.044;14.416;2023-06-10T14:58:43;13.60;;;10.27;;
38358;SDS011;42072;48.044;14.416;2023-06-10T15:01:10;14.63;;;12.02;;
38358;SDS011;42072;48.044;14.416;2023-06-10T15:03:37;11.15;;;9.85;;